Time;durP1;ratioP1;P1;durP2;ratioP2;P2;SDS_P1;SDS_P2;PMS_P1;PMS_P2;Temp;Humidity;BMP_temperature;BMP_pressure;BME280_temperature;BME280_humidity;BME280_pressure;Samples;Min_cycle;Max_cycle;Signal;HPM_P1;HPM_P2
2023/04/09 00:01:09;;;;;;;68.32;37.72;;;9.60;99.90;;;;;;5071447;28;20040;-59
2023/04/09 00:03:36;;;;;;;67.22;39.45;;;9.60;99.90;;;;;;5053790;28;20048;-53
2023/04/09 00:06:02;;;;;;;65.78;38.25;;;9.60;99.90;;;;;;5071508;28;20093;-51
2023/04/09 00:08:28;;;;;;;71.40;40.20;;;9.60;99.90;;;;;;5071558;28;20150;-52
2023/04/09 00:10:54;;;;;;;70.97;40.60;;;9.60;99.90;;;;;;5071789;28;20094;-51
2023/04/09 00:13:20;;;;;;;73.53;41.85;;;9.60;99.90;;;;;;5070397;28;20051;-58
2023/04/09 00:15:46;;;;;;;70.63;39.80;;;9.50;99.90;;;;;;5071734;28;20051;-60
2023/04/09 00:18:13;;;;;;;65.80;38.17;;;9.50;99.90;;;;;;5071006;28;20487;-57
2023/04/09 00:20:39;;;;;;;68.07;39.13;;;9.60;99.90;;;;;;5071424;28;20041;-52
2023/04/09 00:23:05;;;;;;;66.95;38.92;;;9.50;99.90;;;;;;5071250;28;20037;-53
2023/04/09 00:25:30;;;;;;;66.78;37.45;;;9.50;99.90;;;;;;5070779;28;20040;-53
2023/04/09 00:27:56;;;;;;;68.82;39.88;;;9.50;99.90;;;;;;5071134;28;20059;-59
2023/04/09 00:30:22;;;;;;;67.63;37.67;;;9.50;99.90;;;;;;5069825;28;20403;-52
2023/04/09 00:32:48;;;;;;;71.93;39.67;;;9.50;99.90;;;;;;5071097;28;20486;-55
2023/04/09 00:35:16;;;;;;;68.18;37.90;;;9.40;99.90;;;;;;5071136;28;20115;-55
2023/04/09 00:37:42;;;;;;;67.40;39.47;;;9.40;99.90;;;;;;5070607;28;20048;-56
2023/04/09 00:40:08;;;;;;;63.78;39.90;;;9.40;99.90;;;;;;5070885;28;20467;-56
2023/04/09 00:42:36;;;;;;;66.78;40.30;;;9.40;99.90;;;;;;5071023;28;20452;-54
2023/04/09 00:45:02;;;;;;;60.55;46.03;;;9.40;99.90;;;;;;5070521;28;20033;-56
2023/04/09 00:47:29;;;;;;;66.30;37.50;;;9.30;99.90;;;;;;5070704;28;20539;-57
2023/04/09 00:49:56;;;;;;;64.22;36.92;;;9.30;99.90;;;;;;5070617;28;20032;-58
2023/04/09 00:52:22;;;;;;;66.30;37.50;;;9.30;99.90;;;;;;5070631;28;20048;-58
2023/04/09 00:54:49;;;;;;;64.63;37.22;;;9.30;99.90;;;;;;5069057;28;20483;-60
2023/04/09 00:57:15;;;;;;;63.85;35.53;;;9.30;99.90;;;;;;5069624;28;20086;-56
2023/04/09 00:59:42;;;;;;;65.75;37.50;;;9.30;99.90;;;;;;5070980;28;20036;-58
2023/04/09 01:02:07;;;;;;;60.85;36.92;;;9.30;99.90;;;;;;5070317;28;20041;-55
2023/04/09 01:04:34;;;;;;;63.05;36.15;;;9.20;99.90;;;;;;5070270;28;20380;-56
2023/04/09 01:07:21;;;;;;;61.75;36.35;;;9.20;99.90;;;;;;5070706;28;20166;-55
2023/04/09 01:10:21;;;;;;;59.85;35.70;;;9.20;99.90;;;;;;5070398;28;20048;-56
2023/04/09 01:13:14;;;;;;;55.75;32.22;;;9.30;99.90;;;;;;5066743;28;20087;-54
2023/04/09 01:15:51;;;;;;;49.00;28.73;;;9.20;99.90;;;;;;5069977;28;20099;-60
2023/04/09 01:18:55;;;;;;;51.15;31.58;;;9.20;99.90;;;;;;5069785;28;20041;-54
2023/04/09 01:21:26;;;;;;;50.95;29.42;;;9.20;99.90;;;;;;5048859;28;20125;-55
2023/04/09 01:24:31;;;;;;;51.95;30.77;;;9.10;99.90;;;;;;5070482;28;20086;-53
2023/04/09 01:27:04;;;;;;;50.57;29.63;;;9.10;99.90;;;;;;5068700;28;20090;-56
2023/04/09 01:29:34;;;;;;;52.40;30.95;;;9.10;99.90;;;;;;5069924;28;20270;-57
2023/04/09 01:32:01;;;;;;;50.92;31.15;;;9.10;99.90;;;;;;5069285;28;20438;-58
2023/04/09 01:34:29;;;;;;;54.42;32.35;;;9.10;99.90;;;;;;5069289;28;20106;-56
2023/04/09 01:36:57;;;;;;;48.65;28.80;;;9.20;99.90;;;;;;5070270;28;20046;-54
2023/04/09 01:39:24;;;;;;;53.30;30.48;;;9.10;99.90;;;;;;5070031;28;20364;-55
2023/04/09 01:41:50;;;;;;;50.50;29.90;;;9.10;99.90;;;;;;5070192;28;20464;-57
2023/04/09 01:44:16;;;;;;;50.92;29.77;;;9.10;99.90;;;;;;5070048;28;20045;-56
2023/04/09 01:46:43;;;;;;;53.97;30.73;;;9.10;99.90;;;;;;5070431;28;20037;-53
2023/04/09 01:49:10;;;;;;;50.90;30.30;;;9.10;99.90;;;;;;5069955;28;20051;-57
2023/04/09 01:51:37;;;;;;;49.53;28.88;;;9.10;99.90;;;;;;5068705;28;20071;-55
2023/04/09 01:54:03;;;;;;;48.58;29.20;;;9.00;99.90;;;;;;5070042;28;20747;-57
2023/04/09 01:56:46;;;;;;;51.90;29.92;;;9.10;99.90;;;;;;5069629;28;20036;-55
2023/04/09 01:59:12;;;;;;;49.25;29.25;;;9.10;99.90;;;;;;5069899;28;20067;-54
2023/04/09 02:01:45;;;;;;;48.08;28.85;;;9.10;99.90;;;;;;5070137;28;20041;-58
2023/04/09 02:04:23;;;;;;;50.28;29.35;;;9.10;99.90;;;;;;5070365;28;20472;-58
2023/04/09 02:07:03;;;;;;;52.33;29.77;;;9.10;99.90;;;;;;5070277;28;20031;-57
2023/04/09 02:09:31;;;;;;;49.63;28.65;;;9.10;99.90;;;;;;5074006;28;20048;-59
2023/04/09 02:12:01;;;;;;;52.75;29.27;;;9.00;99.90;;;;;;5073880;28;20044;-52
2023/04/09 02:14:28;;;;;;;54.83;30.15;;;9.00;99.90;;;;;;5073974;28;20500;-57
2023/04/09 02:16:53;;;;;;;53.28;30.10;;;9.00;99.90;;;;;;5073811;28;20431;-58
2023/04/09 02:19:19;;;;;;;55.92;29.63;;;9.00;99.90;;;;;;5073360;28;20136;-51
2023/04/09 02:21:45;;;;;;;57.63;30.92;;;8.90;99.90;;;;;;5071924;28;20044;-57
2023/04/09 02:24:11;;;;;;;57.63;32.15;;;8.90;99.90;;;;;;5073358;28;20057;-54
2023/04/09 02:26:36;;;;;;;55.97;32.03;;;8.90;99.90;;;;;;5073476;28;20036;-53
2023/04/09 02:29:02;;;;;;;56.22;31.60;;;8.90;99.90;;;;;;5073639;28;20036;-58
2023/04/09 02:31:28;;;;;;;57.88;33.15;;;8.90;99.90;;;;;;5073401;28;20044;-57
2023/04/09 02:33:54;;;;;;;55.53;30.92;;;8.90;99.90;;;;;;5074025;28;20040;-56
2023/04/09 02:36:19;;;;;;;56.20;30.75;;;8.90;99.90;;;;;;5073725;28;20118;-56
2023/04/09 02:38:45;;;;;;;56.60;30.88;;;8.80;99.90;;;;;;5071611;28;20072;-57
2023/04/09 02:41:11;;;;;;;60.85;32.90;;;8.90;99.90;;;;;;5073412;28;20362;-54
2023/04/09 02:43:36;;;;;;;51.53;30.00;;;8.90;99.90;;;;;;5073212;28;20440;-58
2023/04/09 02:46:02;;;;;;;53.85;30.70;;;8.90;99.90;;;;;;5073287;28;20036;-54
2023/04/09 02:48:28;;;;;;;55.70;30.38;;;8.90;99.90;;;;;;5073446;28;20170;-59
2023/04/09 02:50:54;;;;;;;55.70;31.15;;;8.90;99.90;;;;;;5073755;28;20036;-52
2023/04/09 02:53:20;;;;;;;58.05;31.52;;;9.00;99.90;;;;;;5073088;28;20043;-57
2023/04/09 02:55:46;;;;;;;52.42;29.33;;;8.80;99.90;;;;;;5072579;28;20040;-58
2023/04/09 02:58:12;;;;;;;51.13;28.50;;;8.70;99.90;;;;;;5072772;28;20140;-57
2023/04/09 03:00:37;;;;;;;53.40;30.02;;;8.80;99.90;;;;;;5073414;28;20104;-59
2023/04/09 03:03:03;;;;;;;51.80;30.58;;;8.70;99.90;;;;;;5073404;28;20529;-54
2023/04/09 03:05:29;;;;;;;56.08;29.13;;;8.80;99.90;;;;;;5073389;28;20040;-50
2023/04/09 03:07:55;;;;;;;51.60;29.52;;;8.80;99.90;;;;;;5071461;28;20029;-59
2023/04/09 03:10:20;;;;;;;48.10;26.83;;;8.80;99.90;;;;;;5071472;28;20033;-55
2023/04/09 03:12:46;;;;;;;51.75;28.73;;;8.70;99.90;;;;;;5071346;28;20491;-58
2023/04/09 03:15:12;;;;;;;52.03;28.67;;;8.70;99.90;;;;;;5072456;28;20116;-52
2023/04/09 03:17:38;;;;;;;50.47;26.70;;;8.70;99.90;;;;;;5071280;28;20036;-53
2023/04/09 03:20:06;;;;;;;47.75;27.85;;;8.90;99.90;;;;;;5071456;28;20667;-56
2023/04/09 03:22:36;;;;;;;50.95;27.45;;;8.80;99.90;;;;;;5072733;28;20036;-58
2023/04/09 03:25:02;;;;;;;53.30;29.10;;;8.80;99.90;;;;;;5072284;28;20040;-57
2023/04/09 03:27:28;;;;;;;48.95;27.98;;;8.70;99.90;;;;;;5054844;28;20052;-58
2023/04/09 03:29:57;;;;;;;53.65;27.40;;;8.80;99.90;;;;;;5072761;28;20090;-54
2023/04/09 03:32:23;;;;;;;52.40;27.17;;;8.80;99.90;;;;;;5072153;28;20039;-55
2023/04/09 03:34:49;;;;;;;47.10;28.10;;;8.80;99.90;;;;;;5072139;28;20044;-58
2023/04/09 03:37:15;;;;;;;50.25;27.10;;;8.70;99.90;;;;;;5069944;28;20043;-61
2023/04/09 03:39:40;;;;;;;51.00;29.63;;;8.70;99.90;;;;;;5072251;28;20044;-60
2023/04/09 03:42:06;;;;;;;50.88;27.05;;;8.70;99.90;;;;;;5071844;28;20127;-55
2023/04/09 03:44:32;;;;;;;58.03;29.25;;;8.60;99.90;;;;;;5071030;28;20071;-55
2023/04/09 03:46:57;;;;;;;49.45;27.13;;;8.70;99.90;;;;;;5070838;28;20048;-56
2023/04/09 03:49:23;;;;;;;53.15;27.15;;;8.70;99.90;;;;;;5072159;28;20044;-59
2023/04/09 03:51:49;;;;;;;48.60;26.23;;;8.60;99.90;;;;;;5071982;28;20494;-53
2023/04/09 03:54:15;;;;;;;58.00;28.25;;;8.70;99.90;;;;;;5072122;28;20126;-57
2023/04/09 03:56:41;;;;;;;48.60;26.30;;;8.70;99.90;;;;;;5071326;28;20523;-55
2023/04/09 03:59:06;;;;;;;47.78;27.15;;;8.70;99.90;;;;;;5072076;28;20048;-53
2023/04/09 04:01:33;;;;;;;51.03;28.83;;;8.60;99.90;;;;;;5071917;28;20124;-57
2023/04/09 04:03:59;;;;;;;55.75;28.55;;;8.50;99.90;;;;;;5071891;28;20480;-55
2023/04/09 04:06:26;;;;;;;49.17;27.25;;;8.60;99.90;;;;;;5070021;28;20094;-61
2023/04/09 04:08:52;;;;;;;49.47;27.05;;;9.00;99.90;;;;;;5071698;28;20117;-58
2023/04/09 04:11:18;;;;;;;54.05;28.55;;;8.70;99.90;;;;;;5071766;28;20047;-56
2023/04/09 04:13:43;;;;;;;51.38;29.08;;;8.60;99.90;;;;;;5071495;28;20036;-54
2023/04/09 04:16:09;;;;;;;54.30;28.88;;;8.50;99.90;;;;;;5070480;28;20082;-56
2023/04/09 04:18:35;;;;;;;52.55;29.15;;;8.60;99.90;;;;;;5069932;28;20566;-60
2023/04/09 04:21:01;;;;;;;52.72;27.52;;;8.50;99.90;;;;;;5071686;28;20071;-58
2023/04/09 04:23:27;;;;;;;54.50;28.65;;;8.50;99.90;;;;;;5071436;28;20029;-54
2023/04/09 04:25:53;;;;;;;50.50;28.15;;;8.60;99.90;;;;;;5071207;28;20035;-54
2023/04/09 04:28:19;;;;;;;56.08;29.50;;;8.50;99.90;;;;;;5070836;28;20126;-59
2023/04/09 04:30:44;;;;;;;51.80;29.25;;;8.50;99.90;;;;;;5067304;28;20123;-57
2023/04/09 04:33:10;;;;;;;55.47;28.52;;;8.50;99.90;;;;;;5071375;28;20487;-58
2023/04/09 04:35:36;;;;;;;52.15;28.70;;;8.50;99.90;;;;;;5069718;28;20071;-58
2023/04/09 04:38:01;;;;;;;52.95;29.38;;;8.40;99.90;;;;;;5069897;28;20116;-60
2023/04/09 04:40:27;;;;;;;53.45;29.25;;;8.40;99.90;;;;;;5070964;28;20445;-55
2023/04/09 04:42:53;;;;;;;55.22;28.58;;;8.40;99.90;;;;;;5071103;28;20041;-55
2023/04/09 04:45:19;;;;;;;52.88;28.13;;;8.50;99.90;;;;;;5071100;28;20504;-54
2023/04/09 04:47:44;;;;;;;52.50;28.55;;;8.40;99.90;;;;;;5070907;28;20047;-59
2023/04/09 04:50:10;;;;;;;49.97;29.10;;;8.40;99.90;;;;;;5070875;28;20064;-55
2023/04/09 04:52:37;;;;;;;48.00;26.70;;;8.50;99.90;;;;;;5071031;28;20037;-57
2023/04/09 04:55:03;;;;;;;49.42;28.05;;;8.40;99.90;;;;;;5070457;28;20920;-55
2023/04/09 04:57:29;;;;;;;49.83;28.80;;;8.40;99.90;;;;;;5070912;28;20040;-56
2023/04/09 04:59:55;;;;;;;48.88;27.40;;;8.50;99.90;;;;;;5069385;28;20480;-56
2023/04/09 05:02:20;;;;;;;51.03;28.40;;;8.50;99.90;;;;;;5070741;28;20033;-53
2023/04/09 05:04:46;;;;;;;54.60;29.73;;;8.40;99.90;;;;;;5069082;28;20075;-50
2023/04/09 05:07:11;;;;;;;49.03;36.45;;;8.40;99.90;;;;;;5056297;28;20059;-55
2023/04/09 05:09:37;;;;;;;50.33;28.25;;;8.40;99.90;;;;;;5070918;28;20055;-56
2023/04/09 05:12:03;;;;;;;55.92;27.23;;;8.50;99.90;;;;;;5071139;28;20045;-56
2023/04/09 05:14:29;;;;;;;50.67;28.23;;;8.50;99.90;;;;;;5070850;28;20048;-59
2023/04/09 05:16:54;;;;;;;46.50;27.65;;;8.40;99.90;;;;;;5070555;28;20048;-57
2023/04/09 05:19:20;;;;;;;52.80;27.52;;;8.40;99.90;;;;;;5070098;28;20110;-57
2023/04/09 05:21:46;;;;;;;48.25;25.25;;;8.50;99.90;;;;;;5070405;28;20044;-57
2023/04/09 05:24:11;;;;;;;43.25;24.83;;;8.40;99.90;;;;;;5070427;28;20043;-56
2023/04/09 05:26:37;;;;;;;48.42;25.40;;;8.40;99.90;;;;;;5069375;28;20036;-54
2023/04/09 05:29:03;;;;;;;45.40;25.52;;;8.40;99.90;;;;;;5070695;28;20090;-56
2023/04/09 05:31:28;;;;;;;45.10;25.45;;;8.40;99.90;;;;;;5069130;28;20037;-54
2023/04/09 05:33:54;;;;;;;44.00;25.77;;;8.30;99.90;;;;;;5070288;28;20518;-48
2023/04/09 05:36:20;;;;;;;45.58;26.38;;;8.30;99.90;;;;;;5070112;28;20468;-56
2023/04/09 05:38:46;;;;;;;45.92;25.33;;;8.40;99.90;;;;;;5051993;28;20542;-56
2023/04/09 05:41:12;;;;;;;47.50;24.48;;;8.30;99.90;;;;;;5070138;28;20090;-54
2023/04/09 05:43:37;;;;;;;46.47;24.52;;;8.40;99.90;;;;;;5069896;28;20036;-54
2023/04/09 05:46:03;;;;;;;44.92;26.13;;;8.40;99.90;;;;;;5070265;28;20480;-55
2023/04/09 05:48:29;;;;;;;42.05;24.30;;;8.30;99.90;;;;;;5070217;28;20036;-55
2023/04/09 05:50:55;;;;;;;43.60;24.13;;;8.40;99.90;;;;;;5068777;28;20060;-58
2023/04/09 05:53:21;;;;;;;39.03;24.02;;;8.40;99.90;;;;;;5070192;28;20033;-59
2023/04/09 05:55:50;;;;;;;40.65;24.67;;;8.40;99.90;;;;;;5069966;28;20504;-57
2023/04/09 05:58:17;;;;;;;40.67;22.95;;;8.40;99.90;;;;;;5070078;28;20181;-56
2023/04/09 06:00:43;;;;;;;41.42;23.83;;;8.40;99.90;;;;;;5069118;28;20484;-54
2023/04/09 06:03:09;;;;;;;41.17;23.40;;;8.50;99.90;;;;;;5069974;28;20116;-57
2023/04/09 06:05:35;;;;;;;40.25;23.52;;;8.40;99.90;;;;;;5069752;28;20531;-54
2023/04/09 06:08:01;;;;;;;41.38;24.65;;;8.50;99.90;;;;;;5069914;28;20052;-60
2023/04/09 06:10:26;;;;;;;42.30;24.85;;;8.50;99.90;;;;;;5070056;28;20040;-54
2023/04/09 06:12:52;;;;;;;41.35;23.80;;;8.40;99.90;;;;;;5070166;28;20048;-54
2023/04/09 06:15:18;;;;;;;41.38;24.13;;;8.50;99.90;;;;;;5069031;28;20116;-55
2023/04/09 06:17:44;;;;;;;41.85;24.40;;;8.50;99.90;;;;;;5070052;28;20040;-55
2023/04/09 06:20:10;;;;;;;39.17;23.63;;;8.50;99.90;;;;;;5069706;28;20444;-61
2023/04/09 06:22:36;;;;;;;39.33;23.17;;;8.50;99.90;;;;;;5066254;28;20052;-53
2023/04/09 06:25:02;;;;;;;39.60;23.10;;;8.60;99.90;;;;;;5059337;28;20044;-58
2023/04/09 06:27:28;;;;;;;39.67;23.90;;;8.60;99.90;;;;;;5061811;28;20514;-55
2023/04/09 06:29:53;;;;;;;40.80;22.90;;;8.60;99.90;;;;;;5055865;28;20047;-55
2023/04/09 06:32:19;;;;;;;35.50;21.40;;;8.70;99.90;;;;;;5056914;28;20056;-54
2023/04/09 06:34:45;;;;;;;36.70;23.30;;;8.70;99.90;;;;;;5059431;28;20049;-57
2023/04/09 06:37:11;;;;;;;39.67;22.95;;;8.70;99.90;;;;;;5058677;28;20855;-52
2023/04/09 06:39:37;;;;;;;39.00;22.92;;;8.70;99.90;;;;;;5055829;28;20492;-56
2023/04/09 06:42:02;;;;;;;39.78;22.55;;;8.60;99.90;;;;;;5059058;28;20042;-56
2023/04/09 06:44:29;;;;;;;39.67;23.02;;;8.70;99.90;;;;;;5055067;28;20464;-56
2023/04/09 06:46:55;;;;;;;37.67;23.33;;;8.70;99.90;;;;;;5057952;28;20040;-57
2023/04/09 06:49:21;;;;;;;38.85;23.40;;;8.70;99.90;;;;;;5062274;28;20472;-60
2023/04/09 06:51:47;;;;;;;38.72;23.05;;;8.80;99.90;;;;;;5056990;28;20040;-55
2023/04/09 06:54:13;;;;;;;38.03;22.15;;;8.80;99.90;;;;;;5054370;28;20041;-57
2023/04/09 06:56:38;;;;;;;39.10;23.73;;;8.80;99.90;;;;;;5063539;28;20044;-56
2023/04/09 06:59:04;;;;;;;36.20;21.85;;;8.80;99.90;;;;;;5057037;28;20045;-54
2023/04/09 07:01:30;;;;;;;37.85;22.23;;;8.80;99.90;;;;;;5056717;28;20120;-56
2023/04/09 07:03:56;;;;;;;34.63;21.27;;;8.80;99.90;;;;;;5057007;28;20199;-56
2023/04/09 07:06:21;;;;;;;38.63;22.73;;;8.90;99.90;;;;;;5061785;28;20123;-53
2023/04/09 07:08:47;;;;;;;38.95;22.60;;;8.80;99.90;;;;;;5063989;28;20384;-52
2023/04/09 07:11:15;;;;;;;38.15;23.00;;;8.90;99.90;;;;;;5062246;28;20400;-56
2023/04/09 07:13:41;;;;;;;36.42;21.92;;;8.90;99.90;;;;;;5059862;28;20049;-52
2023/04/09 07:16:07;;;;;;;36.40;22.20;;;9.00;99.90;;;;;;5064074;28;20037;-54
2023/04/09 07:18:33;;;;;;;37.05;22.73;;;8.90;99.90;;;;;;5062348;28;20088;-51
2023/04/09 07:20:58;;;;;;;37.00;22.02;;;8.90;99.90;;;;;;5063215;28;20488;-58
2023/04/09 07:23:24;;;;;;;37.72;21.52;;;8.90;99.90;;;;;;5062707;28;20041;-61
2023/04/09 07:25:50;;;;;;;40.83;23.40;;;8.90;99.90;;;;;;5056524;28;20392;-51
2023/04/09 07:28:16;;;;;;;39.85;22.83;;;9.00;99.90;;;;;;5058067;28;20049;-55
2023/04/09 07:30:41;;;;;;;34.28;21.83;;;9.00;99.90;;;;;;5062807;28;20560;-54
2023/04/09 07:33:07;;;;;;;37.72;22.27;;;9.10;99.90;;;;;;5064994;28;20044;-55
2023/04/09 07:35:33;;;;;;;38.40;23.40;;;9.10;99.90;;;;;;5062023;28;20040;-56
2023/04/09 07:37:59;;;;;;;38.17;22.80;;;9.10;99.90;;;;;;5059321;28;20055;-53
2023/04/09 07:40:25;;;;;;;35.58;22.02;;;9.20;99.90;;;;;;5060007;28;20024;-59
2023/04/09 07:42:52;;;;;;;34.63;23.58;;;9.20;99.90;;;;;;5064790;28;20535;-56
2023/04/09 07:45:18;;;;;;;33.65;27.35;;;9.20;99.90;;;;;;5064534;28;20036;-53
2023/04/09 07:47:43;;;;;;;42.08;23.40;;;9.20;99.90;;;;;;5058053;28;20040;-54
2023/04/09 07:50:10;;;;;;;36.75;22.45;;;9.30;99.90;;;;;;5058032;28;20476;-54
2023/04/09 07:52:36;;;;;;;36.78;21.80;;;9.30;99.90;;;;;;5059915;28;20142;-56
2023/04/09 07:55:01;;;;;;;37.00;23.77;;;9.20;99.90;;;;;;5060235;28;20075;-50
2023/04/09 07:57:30;;;;;;;33.65;23.25;;;9.30;99.90;;;;;;5061036;28;20725;-48
2023/04/09 07:59:55;;;;;;;34.80;22.63;;;9.40;99.90;;;;;;5057812;28;20036;-58
2023/04/09 08:02:22;;;;;;;36.88;23.08;;;9.40;99.90;;;;;;5064291;28;20064;-56
2023/04/09 08:04:48;;;;;;;39.65;22.63;;;9.40;99.90;;;;;;5063555;28;20037;-59
2023/04/09 08:07:13;;;;;;;33.20;22.30;;;9.60;99.90;;;;;;5056451;28;20495;-58
2023/04/09 08:09:39;;;;;;;35.78;23.38;;;9.60;99.90;;;;;;5060220;28;20040;-55
2023/04/09 08:12:05;;;;;;;33.17;22.25;;;9.60;99.90;;;;;;5062741;28;20495;-59
2023/04/09 08:14:31;;;;;;;37.17;23.45;;;9.70;99.90;;;;;;5067244;28;20475;-58
2023/04/09 08:16:56;;;;;;;36.35;22.33;;;9.70;99.90;;;;;;5068214;28;20036;-53
2023/04/09 08:19:22;;;;;;;35.80;22.30;;;9.80;99.90;;;;;;5071100;28;20051;-51
2023/04/09 08:21:48;;;;;;;37.08;23.13;;;9.90;99.90;;;;;;5069725;28;20033;-54
2023/04/09 08:24:14;;;;;;;34.55;21.98;;;9.90;99.90;;;;;;5071440;28;20025;-53
2023/04/09 08:26:41;;;;;;;32.67;21.52;;;10.00;99.90;;;;;;5070730;28;20028;-54
2023/04/09 08:29:08;;;;;;;34.10;21.50;;;10.20;99.90;;;;;;5070685;28;20051;-53
2023/04/09 08:31:35;;;;;;;33.50;21.73;;;10.20;99.90;;;;;;5071334;28;20042;-60
2023/04/09 08:34:00;;;;;;;32.25;22.20;;;10.30;99.90;;;;;;5071256;28;20480;-52
2023/04/09 08:36:26;;;;;;;33.90;22.08;;;10.30;99.90;;;;;;5071249;28;20051;-54
2023/04/09 08:38:54;;;;;;;33.83;21.77;;;10.40;99.90;;;;;;5070990;28;20036;-53
2023/04/09 08:41:24;;;;;;;34.05;22.27;;;10.50;99.90;;;;;;5070883;28;20040;-53
2023/04/09 08:43:51;;;;;;;34.00;22.42;;;10.60;99.90;;;;;;5071362;28;20040;-55
2023/04/09 08:46:18;;;;;;;33.15;21.70;;;10.60;99.90;;;;;;5070680;28;20032;-57
2023/04/09 08:48:45;;;;;;;34.33;22.20;;;10.70;99.90;;;;;;5068970;28;20119;-54
2023/04/09 08:51:18;;;;;;;32.08;21.55;;;10.80;99.90;;;;;;5070072;28;20123;-56
2023/04/09 08:53:52;;;;;;;34.80;22.03;;;10.90;99.90;;;;;;5064384;28;20064;-51
2023/04/09 08:56:19;;;;;;;33.95;22.88;;;11.00;99.90;;;;;;5067646;28;20310;-50
2023/04/09 08:58:46;;;;;;;31.50;21.67;;;11.00;99.90;;;;;;5069642;28;20041;-55
2023/04/09 09:01:22;;;;;;;33.70;21.92;;;11.10;99.90;;;;;;5063692;28;20072;-57
2023/04/09 09:04:06;;;;;;;32.97;22.23;;;11.10;99.90;;;;;;5064814;28;20050;-57
2023/04/09 09:06:37;;;;;;;32.20;21.45;;;11.20;99.90;;;;;;5070824;28;20503;-58
2023/04/09 09:09:04;;;;;;;32.65;22.08;;;11.30;99.90;;;;;;5070390;28;20032;-57
2023/04/09 09:11:30;;;;;;;33.55;23.13;;;11.60;99.90;;;;;;5070117;28;20086;-54
2023/04/09 09:13:58;;;;;;;32.70;23.08;;;11.80;99.90;;;;;;5069870;28;20480;-54
2023/04/09 09:16:23;;;;;;;33.03;22.13;;;12.10;99.90;;;;;;5070323;28;20032;-55
2023/04/09 09:18:49;;;;;;;29.55;24.23;;;12.20;99.90;;;;;;5069769;28;20059;-52
2023/04/09 09:21:18;;;;;;;34.33;23.45;;;12.10;99.90;;;;;;5070325;28;20458;-56
2023/04/09 09:23:44;;;;;;;35.55;24.08;;;12.10;99.90;;;;;;5070457;28;20030;-59
2023/04/09 09:26:19;;;;;;;35.60;23.08;;;12.00;99.90;;;;;;5069979;28;20040;-54
2023/04/09 09:28:47;;;;;;;32.58;26.35;;;12.10;99.90;;;;;;5070363;28;20049;-56
2023/04/09 09:31:14;;;;;;;35.00;23.83;;;12.30;99.90;;;;;;5070183;28;20116;-56
2023/04/09 09:33:41;;;;;;;33.70;26.08;;;12.50;99.90;;;;;;5070266;28;20037;-57
2023/04/09 09:36:08;;;;;;;34.65;24.38;;;12.60;99.90;;;;;;5070302;28;20036;-56
2023/04/09 09:38:54;;;;;;;32.33;24.88;;;12.60;99.90;;;;;;5070321;28;20086;-53
2023/04/09 09:41:20;;;;;;;32.03;22.08;;;12.60;99.90;;;;;;5070201;28;20032;-56
2023/04/09 09:43:46;;;;;;;35.80;23.30;;;12.70;99.90;;;;;;5066416;28;20045;-54
2023/04/09 09:46:12;;;;;;;32.40;25.17;;;12.80;99.90;;;;;;5067367;28;20032;-51
2023/04/09 09:48:38;;;;;;;32.17;22.30;;;12.80;99.90;;;;;;5069892;28;20193;-53
2023/04/09 09:51:10;;;;;;;30.55;23.30;;;12.80;99.90;;;;;;5070118;28;20044;-58
2023/04/09 09:53:37;;;;;;;30.35;21.13;;;12.90;99.90;;;;;;5069931;28;20483;-59
2023/04/09 09:56:15;;;;;;;29.70;22.10;;;12.90;99.90;;;;;;5069712;28;20494;-58
2023/04/09 09:58:44;;;;;;;30.25;21.15;;;13.10;99.90;;;;;;5069358;28;20035;-53
2023/04/09 10:01:12;;;;;;;31.67;24.10;;;13.20;99.90;;;;;;5070307;28;20467;-50
2023/04/09 10:03:41;;;;;;;30.98;20.80;;;13.10;99.90;;;;;;5069318;28;20119;-56
2023/04/09 10:06:07;;;;;;;29.27;22.92;;;13.00;99.90;;;;;;5069735;28;20052;-54
2023/04/09 10:08:36;;;;;;;30.88;23.05;;;12.90;99.90;;;;;;5069918;28;20029;-57
2023/04/09 10:11:04;;;;;;;26.42;18.45;;;13.00;99.90;;;;;;5068352;28;20040;-55
2023/04/09 10:13:42;;;;;;;23.13;19.40;;;13.10;99.90;;;;;;5069259;28;20957;-55
2023/04/09 10:16:08;;;;;;;24.08;18.98;;;13.10;99.90;;;;;;5069423;28;20048;-54
2023/04/09 10:18:35;;;;;;;24.67;19.27;;;13.20;99.90;;;;;;5069197;28;20056;-56
2023/04/09 10:21:09;;;;;;;24.33;18.92;;;13.30;99.90;;;;;;5069471;28;20053;-56
2023/04/09 10:23:40;;;;;;;26.00;17.88;;;13.20;99.90;;;;;;5069920;28;20044;-56
2023/04/09 10:26:06;;;;;;;27.58;18.00;;;13.10;99.90;;;;;;5066805;28;20498;-50
2023/04/09 10:28:32;;;;;;;25.65;19.33;;;12.80;99.90;;;;;;5071219;28;20040;-54
2023/04/09 10:30:58;;;;;;;28.10;17.75;;;12.70;99.90;;;;;;5069212;28;20768;-52
2023/04/09 10:33:26;;;;;;;24.92;18.73;;;12.80;99.90;;;;;;5072647;28;20028;-54
2023/04/09 10:35:53;;;;;;;26.25;19.60;;;12.80;99.90;;;;;;5069810;28;20090;-53
2023/04/09 10:38:39;;;;;;;24.83;19.35;;;12.90;99.90;;;;;;5069660;28;20040;-56
2023/04/09 10:41:20;;;;;;;25.73;19.48;;;13.10;99.90;;;;;;5070595;28;20098;-57
2023/04/09 10:43:47;;;;;;;25.13;18.95;;;13.30;99.90;;;;;;5071284;28;20097;-53
2023/04/09 10:46:32;;;;;;;24.30;18.08;;;13.50;99.90;;;;;;5071167;28;20036;-52
2023/04/09 10:49:18;;;;;;;24.65;19.17;;;13.60;99.90;;;;;;5069683;28;20082;-58
2023/04/09 10:52:01;;;;;;;23.58;18.38;;;13.60;99.90;;;;;;5069447;28;20075;-56
2023/04/09 10:54:33;;;;;;;24.02;18.50;;;13.70;99.90;;;;;;5071817;28;20094;-55
2023/04/09 10:57:07;;;;;;;24.27;18.88;;;13.80;99.90;;;;;;5072789;28;20498;-56
2023/04/09 10:59:53;;;;;;;23.33;17.08;;;13.80;99.90;;;;;;5073043;28;20087;-54
2023/04/09 11:02:37;;;;;;;23.50;18.42;;;13.90;99.90;;;;;;5072116;28;20090;-54
2023/04/09 11:05:18;;;;;;;23.30;18.15;;;13.90;99.90;;;;;;5072584;28;20056;-55
2023/04/09 11:07:48;;;;;;;24.52;18.33;;;14.00;99.90;;;;;;5072901;28;20040;-56
2023/04/09 11:10:14;;;;;;;23.60;18.20;;;14.10;99.90;;;;;;5071236;28;20086;-51
2023/04/09 11:12:40;;;;;;;21.85;17.25;;;14.10;99.90;;;;;;5072837;28;20136;-56
2023/04/09 11:15:14;;;;;;;23.20;18.15;;;14.10;99.90;;;;;;5072495;28;20044;-57
2023/04/09 11:17:40;;;;;;;22.55;17.17;;;14.20;99.90;;;;;;5072963;28;20032;-51
2023/04/09 11:20:06;;;;;;;23.40;17.30;;;14.20;99.90;;;;;;5071109;28;20052;-56
2023/04/09 11:22:33;;;;;;;22.58;17.05;;;14.20;99.90;;;;;;5072517;28;20064;-56
2023/04/09 11:24:58;;;;;;;23.77;17.95;;;14.40;99.90;;;;;;5072612;28;20371;-51
2023/04/09 11:27:24;;;;;;;22.33;17.75;;;14.50;99.90;;;;;;5072615;28;20039;-59
2023/04/09 11:29:54;;;;;;;22.00;17.65;;;14.60;99.90;;;;;;5071039;28;20049;-51
2023/04/09 11:32:20;;;;;;;23.17;17.83;;;14.60;99.90;;;;;;5071242;28;20070;-55
2023/04/09 11:34:46;;;;;;;22.42;17.77;;;14.50;99.90;;;;;;5054634;28;20268;-58
2023/04/09 11:37:15;;;;;;;21.33;17.15;;;14.50;99.90;;;;;;5072551;28;20037;-60
2023/04/09 11:39:45;;;;;;;21.50;16.88;;;14.50;99.90;;;;;;5071605;28;20519;-56
2023/04/09 11:42:14;;;;;;;20.48;16.83;;;14.70;99.90;;;;;;5071942;28;20047;-53
2023/04/09 11:44:40;;;;;;;22.77;17.48;;;15.10;99.90;;;;;;5072170;28;20450;-55
2023/04/09 11:47:10;;;;;;;21.27;16.08;;;15.50;99.90;;;;;;5072096;28;20024;-55
2023/04/09 11:49:36;;;;;;;20.42;16.13;;;15.80;99.90;;;;;;5071772;28;20052;-53
2023/04/09 11:52:02;;;;;;;21.42;15.82;;;16.00;99.90;;;;;;5060900;28;20086;-59
2023/04/09 11:54:33;;;;;;;19.75;15.65;;;16.10;99.90;;;;;;5071904;28;20066;-54
2023/04/09 11:57:07;;;;;;;20.38;16.38;;;16.30;99.90;;;;;;5071612;28;20032;-56
2023/04/09 11:59:36;;;;;;;21.90;17.60;;;16.50;99.90;;;;;;5072095;28;20468;-60
2023/04/09 12:02:05;;;;;;;20.77;17.33;;;16.40;99.90;;;;;;5071993;28;20040;-54
2023/04/09 12:04:31;;;;;;;21.58;16.80;;;16.60;99.90;;;;;;5071305;28;20083;-55
2023/04/09 12:07:00;;;;;;;22.38;17.02;;;16.60;99.90;;;;;;5071865;28;20076;-56
2023/04/09 12:09:26;;;;;;;19.23;15.57;;;16.50;99.90;;;;;;5071516;28;20101;-54
2023/04/09 12:11:51;;;;;;;22.85;15.73;;;16.40;99.90;;;;;;5071886;28;20041;-59
2023/04/09 12:14:20;;;;;;;20.08;14.93;;;16.30;99.90;;;;;;5071604;28;20048;-52
2023/04/09 12:16:51;;;;;;;18.55;14.30;;;16.30;99.90;;;;;;5071944;28;20036;-54
2023/04/09 12:19:18;;;;;;;17.88;14.13;;;16.60;99.90;;;;;;5070877;28;20057;-58
2023/04/09 12:21:49;;;;;;;18.23;13.77;;;17.00;99.90;;;;;;5071548;28;20040;-53
2023/04/09 12:24:16;;;;;;;18.58;13.25;;;17.30;99.90;;;;;;5071081;28;20078;-55
2023/04/09 12:26:46;;;;;;;18.92;14.13;;;17.60;99.90;;;;;;5070964;28;20105;-58
2023/04/09 12:29:16;;;;;;;18.85;13.85;;;17.70;99.90;;;;;;5071289;28;20081;-58
2023/04/09 12:31:43;;;;;;;17.73;13.90;;;17.60;99.90;;;;;;5071348;28;20044;-54
2023/04/09 12:34:09;;;;;;;17.73;13.27;;;17.60;99.90;;;;;;5071189;28;20560;-53
2023/04/09 12:36:34;;;;;;;19.48;14.85;;;17.70;99.90;;;;;;5071259;28;20044;-53